Time;durP1;ratioP1;P1;durP2;ratioP2;P2;SDS_P1;SDS_P2;PMS_P1;PMS_P2;Temp;Humidity;BMP_temperature;BMP_pressure;BME280_temperature;BME280_humidity;BME280_pressure;Samples;Min_cycle;Max_cycle;Signal;HPM_P1;HPM_P2
2023/03/03 00:01:57;;;;;;;255.85;34.20;;;;;;;;;;4933447;29;20474;-77
2023/03/03 00:04:23;;;;;;;257.20;34.13;;;;;;;;;;4911432;29;20785;-77
2023/03/03 00:06:49;;;;;;;371.17;38.20;;;;;;;;;;4918403;29;20496;-77
2023/03/03 00:09:15;;;;;;;372.95;40.03;;;;;;;;;;4934825;29;20475;-79
2023/03/03 00:11:41;;;;;;;315.63;35.90;;;;;;;;;;4918678;29;20498;-79
2023/03/03 00:14:18;;;;;;;243.20;31.33;;;;;;;;;;4932679;29;20446;-79
2023/03/03 00:16:44;;;;;;;243.90;33.28;;;;;;;;;;4916045;29;20456;-79
2023/03/03 00:19:15;;;;;;;316.48;33.50;;;;;;;;;;4934894;29;20478;-79
2023/03/03 00:21:42;;;;;;;259.33;30.70;;;;;;;;;;4934802;29;20954;-79
2023/03/03 00:24:19;;;;;;;232.88;29.98;;;;;;;;;;4932209;29;20935;-79
2023/03/03 00:26:55;;;;;;;229.35;28.10;;;;;;;;;;4933331;29;20411;-79
2023/03/03 00:29:30;;;;;;;210.93;27.48;;;;;;;;;;4917962;29;20469;-79
2023/03/03 00:32:14;;;;;;;218.90;27.60;;;;;;;;;;4915705;29;20513;-80
2023/03/03 00:34:41;;;;;;;266.83;31.05;;;;;;;;;;4921292;29;20459;-81
2023/03/03 00:37:22;;;;;;;240.55;29.98;;;;;;;;;;4933963;29;20757;-80
2023/03/03 00:39:48;;;;;;;214.85;26.77;;;;;;;;;;4913886;29;20439;-79
2023/03/03 00:42:15;;;;;;;236.80;29.05;;;;;;;;;;4918782;29;20482;-79
2023/03/03 00:44:48;;;;;;;245.35;29.33;;;;;;;;;;4933264;29;20514;-80
2023/03/03 00:47:32;;;;;;;201.77;28.33;;;;;;;;;;4932275;29;20443;-77
2023/03/03 00:50:11;;;;;;;191.95;27.38;;;;;;;;;;4915435;29;20776;-77
2023/03/03 00:52:38;;;;;;;230.07;28.23;;;;;;;;;;4931971;29;20439;-77
2023/03/03 00:55:05;;;;;;;256.08;30.92;;;;;;;;;;4933347;29;20467;-77
2023/03/03 00:57:31;;;;;;;366.05;35.38;;;;;;;;;;4934170;29;20860;-77
2023/03/03 00:59:57;;;;;;;405.48;41.47;;;;;;;;;;4932044;29;20423;-77
2023/03/03 01:02:23;;;;;;;413.65;41.75;;;;;;;;;;4915713;29;20435;-77
2023/03/03 01:04:50;;;;;;;397.02;38.42;;;;;;;;;;4918244;29;20482;-77
2023/03/03 01:07:16;;;;;;;362.27;33.85;;;;;;;;;;4918192;29;20494;-77
2023/03/03 01:09:42;;;;;;;368.55;34.85;;;;;;;;;;4932977;29;20452;-76
2023/03/03 01:12:09;;;;;;;355.63;32.17;;;;;;;;;;4918402;29;20760;-77
2023/03/03 01:14:35;;;;;;;222.45;26.33;;;;;;;;;;4917914;29;20820;-76
2023/03/03 01:17:01;;;;;;;197.23;24.45;;;;;;;;;;4916674;29;20439;-76
2023/03/03 01:19:28;;;;;;;322.42;26.42;;;;;;;;;;4930069;29;20572;-77
2023/03/03 01:21:54;;;;;;;219.50;23.80;;;;;;;;;;4933540;29;20446;-76
2023/03/03 01:24:20;;;;;;;254.88;24.92;;;;;;;;;;4918182;29;20506;-76
2023/03/03 01:26:47;;;;;;;353.23;28.33;;;;;;;;;;4932373;29;20780;-76
2023/03/03 01:29:14;;;;;;;297.88;26.90;;;;;;;;;;4933103;29;20427;-76
2023/03/03 01:31:40;;;;;;;266.67;28.27;;;;;;;;;;4933552;29;20416;-76
2023/03/03 01:34:06;;;;;;;296.27;28.05;;;;;;;;;;4933320;29;20431;-76
2023/03/03 01:36:33;;;;;;;315.40;29.02;;;;;;;;;;4915867;29;20439;-76
2023/03/03 01:38:59;;;;;;;391.42;34.55;;;;;;;;;;4932103;29;20431;-76
2023/03/03 01:41:31;;;;;;;332.20;31.27;;;;;;;;;;4933328;29;20942;-76
2023/03/03 01:43:57;;;;;;;392.60;32.92;;;;;;;;;;4932495;29;20785;-76
2023/03/03 01:46:45;;;;;;;329.30;28.80;;;1.90;99.90;;;;;;4933831;29;20491;-76
2023/03/03 01:49:21;;;;;;;400.95;30.73;;;;;;;;;;4932193;29;20427;-76
2023/03/03 01:51:55;;;;;;;385.35;29.48;;;;;;;;;;4929158;29;20435;-76
2023/03/03 01:54:25;;;;;;;363.95;27.30;;;;;;;;;;4932570;29;20482;-76
2023/03/03 01:56:52;;;;;;;454.65;30.27;;;;;;;;;;4933424;29;20422;-76
2023/03/03 01:59:20;;;;;;;392.15;29.98;;;;;;;;;;4913927;29;20437;-76
2023/03/03 02:01:47;;;;;;;358.55;27.33;;;;;;;;;;4927261;29;20463;-76
2023/03/03 02:04:14;;;;;;;317.33;26.88;;;;;;;;;;4932933;29;20498;-76
2023/03/03 02:06:41;;;;;;;376.98;26.05;;;;;;;;;;4931874;29;20503;-76
2023/03/03 02:09:16;;;;;;;299.92;24.35;;;;;;;;;;4932717;29;20524;-76
2023/03/03 02:11:44;;;;;;;259.90;21.98;;;;;;;;;;4931950;29;20523;-76
2023/03/03 02:14:10;;;;;;;271.70;22.33;;;;;;;;;;4916389;29;20443;-76
2023/03/03 02:16:36;;;;;;;345.60;23.98;;;;;;;;;;4913544;29;20885;-76
2023/03/03 02:19:04;;;;;;;283.80;20.90;;;;;;;;;;4930902;29;20454;-75
2023/03/03 02:21:31;;;;;;;279.52;23.33;;;;;;;;;;4931759;29;20465;-76
2023/03/03 02:24:01;;;;;;;298.63;21.20;;;;;;;;;;4929820;29;21215;-75
2023/03/03 02:26:28;;;;;;;235.95;21.85;;;;;;;;;;4916210;29;20427;-76
2023/03/03 02:28:55;;;;;;;179.65;19.23;;;;;;;;;;4931280;29;20438;-76
2023/03/03 02:31:22;;;;;;;224.88;19.67;;;;;;;;;;4931749;29;20439;-76
2023/03/03 02:33:49;;;;;;;230.90;18.60;;;;;;;;;;4933226;29;20423;-76
2023/03/03 02:36:17;;;;;;;375.73;22.88;;;;;;;;;;4916239;29;20435;-76
2023/03/03 02:38:46;;;;;;;349.25;23.45;;;;;;;;;;4932240;29;20427;-76
2023/03/03 02:41:28;;;;;;;243.90;19.33;;;;;;;;;;4931909;29;20443;-76
2023/03/03 02:43:57;;;;;;;192.27;16.37;;;;;;;;;;4913916;29;20504;-76
2023/03/03 02:46:23;;;;;;;175.52;16.70;;;;;;;;;;4921976;29;20435;-76
2023/03/03 02:48:49;;;;;;;195.82;16.55;;;;;;;;;;4930456;29;20526;-76
2023/03/03 02:51:15;;;;;;;285.52;20.52;;;;;;;;;;4903976;29;20421;-76
2023/03/03 02:53:41;;;;;;;266.80;18.50;;;;;;;;;;4921934;29;20417;-76
2023/03/03 02:56:08;;;;;;;193.02;15.10;;;;;;;;;;4921671;29;20440;-76
2023/03/03 02:58:35;;;;;;;192.77;14.33;;;;;;;;;;4903233;29;20436;-76
2023/03/03 03:01:01;;;;;;;135.85;11.90;;;;;;;;;;4900927;29;20443;-76
2023/03/03 03:03:27;;;;;;;205.10;14.40;;;;;;;;;;4933131;29;20474;-76
2023/03/03 03:05:53;;;;;;;139.88;14.38;;;;;;;;;;4933001;29;20434;-76
2023/03/03 03:08:19;;;;;;;165.43;14.80;;;;;;;;;;4916766;29;20875;-76
2023/03/03 03:10:45;;;;;;;175.20;14.23;;;;;;;;;;4948511;29;20518;-76
2023/03/03 03:13:11;;;;;;;133.80;13.68;;;;;;;;;;4951527;28;20425;-76
2023/03/03 03:15:37;;;;;;;151.27;14.57;;;;;;;;;;4935394;29;20433;-76
2023/03/03 03:18:04;;;;;;;126.57;14.32;;;;;;;;;;4936760;29;20884;-76
2023/03/03 03:20:30;;;;;;;130.77;12.77;;;;;;;;;;4935730;29;20844;-76
2023/03/03 03:22:56;;;;;;;139.32;14.07;;;;;;;;;;4919098;29;20441;-76
2023/03/03 03:25:22;;;;;;;132.00;14.55;;;;;;;;;;4934994;29;20435;-76
2023/03/03 03:27:48;;;;;;;123.33;13.27;;;;;;;;;;4935926;29;20422;-76
2023/03/03 03:30:15;;;;;;;143.43;14.38;;;;;;;;;;4934833;29;20419;-76
2023/03/03 03:32:41;;;;;;;88.30;12.57;;;;;;;;;;4935439;29;20421;-76
2023/03/03 03:35:07;;;;;;;79.85;11.57;;;;;;;;;;4934461;29;20428;-76
2023/03/03 03:37:33;;;;;;;120.60;14.30;;;;;;;;;;4934472;29;20439;-77
2023/03/03 03:39:59;;;;;;;96.20;12.95;;;;;;;;;;4917851;29;20424;-77
2023/03/03 03:42:25;;;;;;;101.35;12.63;;;;;;;;;;4935386;29;20923;-77
2023/03/03 03:44:51;;;;;;;87.88;13.52;;;;;;;;;;4914722;29;20958;-77
2023/03/03 03:47:17;;;;;;;82.22;12.73;;;;;;;;;;4935054;29;20423;-77
2023/03/03 03:49:43;;;;;;;50.15;11.90;;;;;;;;;;4930151;29;20427;-77
2023/03/03 03:52:09;;;;;;;52.42;12.32;;;;;;;;;;4935540;29;20415;-77
2023/03/03 03:54:35;;;;;;;73.22;12.10;;;;;;;;;;4915749;29;20436;-77
2023/03/03 03:57:02;;;;;;;55.17;10.73;;;;;;;;;;4901796;29;20424;-77
2023/03/03 03:59:28;;;;;;;25.20;9.70;;;;;;;;;;4919276;29;20508;-77
2023/03/03 04:01:54;;;;;;;35.90;9.75;;;;;;;;;;4930783;29;20957;-77
2023/03/03 04:04:20;;;;;;;27.45;9.75;;;;;;;;;;4919887;29;20717;-77
2023/03/03 04:06:46;;;;;;;33.53;10.98;;;;;;;;;;4934007;29;20912;-77
2023/03/03 04:09:12;;;;;;;19.45;11.02;;;;;;;;;;4934866;29;20423;-77
2023/03/03 04:11:38;;;;;;;33.22;12.38;;;;;;;;;;4935693;29;20756;-77
2023/03/03 04:14:04;;;;;;;59.72;13.65;;;;;;;;;;4903053;29;20448;-78
2023/03/03 04:16:31;;;;;;;56.70;13.45;;;;;;;;;;4934284;29;20431;-77
2023/03/03 04:18:57;;;;;;;70.78;14.27;;;;;;;;;;4933026;29;20435;-77
2023/03/03 04:21:24;;;;;;;58.45;14.05;;;;;;;;;;4933189;29;20427;-77
2023/03/03 04:23:50;;;;;;;98.43;15.85;;;;;;;;;;4932863;29;20435;-77
2023/03/03 04:26:16;;;;;;;51.55;13.05;;;;;;;;;;4929046;29;20457;-77
2023/03/03 04:28:42;;;;;;;99.10;16.15;;;;;;;;;;4918401;29;20408;-78
2023/03/03 04:31:08;;;;;;;54.55;13.48;;;;;;;;;;4910858;29;20435;-78
2023/03/03 04:33:35;;;;;;;46.55;13.23;;;;;;;;;;4894101;29;20421;-78
2023/03/03 04:36:01;;;;;;;43.40;14.00;;;;;;;;;;4927074;29;20463;-78
2023/03/03 04:38:27;;;;;;;52.58;14.55;;;;;;;;;;4910999;29;20444;-77
2023/03/03 04:40:53;;;;;;;73.43;14.82;;;;;;;;;;4927812;29;20454;-78
2023/03/03 04:43:19;;;;;;;119.10;17.83;;;;;;;;;;4935114;29;20458;-78
2023/03/03 04:45:46;;;;;;;128.57;17.35;;;;;;;;;;4917181;29;20426;-78
2023/03/03 04:48:12;;;;;;;116.28;17.58;;;;;;;;;;4913868;29;20421;-78
2023/03/03 04:50:38;;;;;;;69.23;15.63;;;;;;;;;;4902604;29;20437;-78
2023/03/03 04:53:04;;;;;;;124.68;17.70;;;;;;;;;;4911560;29;20420;-78
2023/03/03 04:55:30;;;;;;;54.17;13.80;;;;;;;;;;4917860;29;20446;-78
2023/03/03 04:57:56;;;;;;;64.30;14.35;;;;;;;;;;4933924;29;20442;-77
2023/03/03 05:00:22;;;;;;;44.13;13.33;;;;;;;;;;4914281;29;20534;-77
2023/03/03 05:02:49;;;;;;;34.25;13.20;;;;;;;;;;4933620;29;20781;-77
2023/03/03 05:05:15;;;;;;;25.75;12.23;;;;;;;;;;4934243;29;20427;-77
2023/03/03 05:07:41;;;;;;;21.85;11.68;;;;;;;;;;4914331;29;20512;-77
2023/03/03 05:10:08;;;;;;;21.27;11.32;;;;;;;;;;4926038;29;20911;-77
2023/03/03 05:12:34;;;;;;;26.88;12.02;;;;;;;;;;4918096;29;20939;-77
2023/03/03 05:15:00;;;;;;;25.45;12.05;;;;;;;;;;4915312;29;20439;-77
2023/03/03 05:17:26;;;;;;;25.30;11.57;;;;;;;;;;4913297;29;20455;-76
2023/03/03 05:19:53;;;;;;;27.15;11.98;;;;;;;;;;4922927;29;20481;-76
2023/03/03 05:22:19;;;;;;;25.85;10.98;;;;;;;;;;4915205;29;20929;-76
2023/03/03 05:24:47;;;;;;;27.00;11.30;;;;;;;;;;4930885;29;20787;-77
2023/03/03 05:27:14;;;;;;;20.50;10.70;;;;;;;;;;4912575;29;20432;-76
2023/03/03 05:29:40;;;;;;;19.52;9.93;;;;;;;;;;4915074;29;20428;-76
2023/03/03 05:32:06;;;;;;;18.75;9.30;;;;;;;;;;4911673;29;20428;-77
2023/03/03 05:34:32;;;;;;;16.17;9.32;;;;;;;;;;4905279;29;20439;-77
2023/03/03 05:36:58;;;;;;;11.93;8.30;;;;;;;;;;4900447;29;20427;-80
2023/03/03 05:39:24;;;;;;;14.43;8.88;;;;;;;;;;4933811;29;20439;-80
2023/03/03 05:41:50;;;;;;;12.00;8.40;;;;;;;;;;4931277;29;20529;-80
2023/03/03 05:44:16;;;;;;;13.55;8.77;;;;;;;;;;4933180;29;20434;-80
2023/03/03 05:46:42;;;;;;;17.05;10.88;;;;;;;;;;4932737;29;20423;-80
2023/03/03 05:49:08;;;;;;;16.80;10.90;;;;;;;;;;4932189;29;20441;-80
2023/03/03 05:51:34;;;;;;;13.95;9.02;;;;;;;;;;4915594;29;20435;-80
2023/03/03 05:54:00;;;;;;;14.38;9.40;;;;;;;;;;4934643;29;20439;-80
2023/03/03 05:56:26;;;;;;;14.50;9.70;;;;;;;;;;4933728;29;20758;-79
2023/03/03 05:58:53;;;;;;;12.68;9.00;;;;;;;;;;4935657;29;20419;-79
2023/03/03 06:01:19;;;;;;;13.57;9.10;;;;;;;;;;4933436;29;20435;-81
2023/03/03 06:03:45;;;;;;;12.70;8.93;;;;;;;;;;4934269;29;20421;-80
2023/03/03 06:06:12;;;;;;;13.87;9.37;;;;;;;;;;4933968;29;20428;-80
2023/03/03 06:08:39;;;;;;;12.07;8.40;;;;;;;;;;4932119;29;20428;-80
2023/03/03 06:11:05;;;;;;;12.40;8.95;;;;;;;;;;4933293;29;20411;-79
2023/03/03 06:13:31;;;;;;;14.15;10.20;;;;;;;;;;4932165;29;20440;-80
2023/03/03 06:15:57;;;;;;;13.67;9.53;;;;;;;;;;4916279;29;20496;-80
2023/03/03 06:18:23;;;;;;;12.52;8.57;;;;;;;;;;4933141;29;20411;-80
2023/03/03 06:20:53;;;;;;;13.90;9.30;;;;;;;;;;4913893;29;20482;-80
2023/03/03 06:23:19;;;;;;;22.07;11.67;;;;;;;;;;4907636;29;20490;-80
2023/03/03 06:25:46;;;;;;;16.30;10.13;;;;;;;;;;4931435;29;20851;-80
2023/03/03 06:28:12;;;;;;;15.70;10.40;;;;;;;;;;4933020;29;20423;-80
2023/03/03 06:30:38;;;;;;;17.27;11.50;;;;;;;;;;4933208;29;20482;-81
2023/03/03 06:33:04;;;;;;;14.43;9.43;;;;;;;;;;4933162;29;20418;-81
2023/03/03 06:35:30;;;;;;;18.42;11.52;;;;;;;;;;4931416;29;20458;-81
2023/03/03 06:37:56;;;;;;;13.67;9.30;;;;;;;;;;4912049;29;20435;-81
2023/03/03 06:40:22;;;;;;;15.60;9.50;;;;;;;;;;4916166;29;20478;-81
2023/03/03 06:42:49;;;;;;;15.60;10.10;;;;;;;;;;4932904;29;20419;-81
2023/03/03 06:45:15;;;;;;;15.15;10.02;;;;;;;;;;4932465;29;20458;-80
2023/03/03 06:47:41;;;;;;;13.73;9.40;;;;;;;;;;4933644;29;20423;-81
2023/03/03 06:50:08;;;;;;;25.08;11.95;;;;;;;;;;4936656;29;20506;-81
2023/03/03 06:52:34;;;;;;;16.85;10.45;;;;;;;;;;4919223;29;20426;-81
2023/03/03 06:55:01;;;;;;;13.07;9.00;;;;;;;;;;4920930;29;20872;-81
2023/03/03 06:57:32;;;;;;;14.40;9.63;;;;;;;;;;4920554;29;20429;-80
2023/03/03 07:00:14;;;;;;;16.93;8.70;;;;;;;;;;4936415;29;20491;-80
2023/03/03 07:02:40;;;;;;;12.90;8.40;;;;;;;;;;4922671;29;21021;-81
2023/03/03 07:05:10;;;;;;;11.60;7.90;;;;;;;;;;4936453;29;20588;-81
2023/03/03 07:07:36;;;;;;;13.13;7.95;;;;;;;;;;4937219;29;20443;-81
2023/03/03 07:10:07;;;;;;;11.85;8.50;;;;;;;;;;4936352;29;20423;-82
2023/03/03 07:12:35;;;;;;;12.90;7.90;;;;;;;;;;4934083;29;20435;-81
2023/03/03 07:15:07;;;;;;;11.55;8.60;;;;;;;;;;4933414;29;20765;-80
2023/03/03 07:17:33;;;;;;;12.75;8.82;;;;;;;;;;4918214;29;20835;-79
2023/03/03 07:20:01;;;;;;;11.77;8.68;;;;;;;;;;4930865;29;20866;-80
2023/03/03 07:22:29;;;;;;;13.02;8.88;;;;;;;;;;4915175;29;20437;-79
2023/03/03 07:25:00;;;;;;;11.30;8.60;;;;;;;;;;4919881;29;20431;-80
2023/03/03 07:27:30;;;;;;;12.02;9.00;;;;;;;;;;4917260;29;20526;-79
2023/03/03 07:30:17;;;;;;;12.05;8.88;;;;;;;;;;4935542;29;20591;-78
2023/03/03 07:32:45;;;;;;;13.82;9.15;;;;;;;;;;4935444;29;20947;-78
2023/03/03 07:35:27;;;;;;;12.50;9.35;;;;;;;;;;4934421;29;20427;-78
2023/03/03 07:37:53;;;;;;;12.40;8.88;;;;;;;;;;4933649;29;20994;-78
2023/03/03 07:40:36;;;;;;;13.02;9.05;;;;;;;;;;4936150;29;20895;-79
2023/03/03 07:43:15;;;;;;;13.93;9.40;;;;;;;;;;4932615;29;20478;-79
2023/03/03 07:45:42;;;;;;;12.10;9.07;;;;;;;;;;4917245;29;20442;-79
2023/03/03 07:48:25;;;;;;;11.77;8.73;;;;;;;;;;4916550;29;20421;-78
2023/03/03 07:50:52;;;;;;;11.40;8.60;;;;;;;;;;4916736;29;20904;-78
2023/03/03 07:53:29;;;;;;;11.02;8.27;;;;;;;;;;4933143;29;20937;-79
2023/03/03 07:55:55;;;;;;;11.82;8.60;;;;;;;;;;4927610;29;20437;-81
2023/03/03 07:58:23;;;;;;;11.02;8.50;;;;;;;;;;4935331;29;20450;-79
2023/03/03 08:01:08;;;;;;;12.75;8.70;;;;;;;;;;4932698;29;20428;-77
2023/03/03 08:03:35;;;;;;;13.55;9.25;;;;;;;;;;4934716;29;20922;-79
2023/03/03 08:06:07;;;;;;;12.65;8.93;;;;;;;;;;4930681;29;20582;-78
2023/03/03 08:08:35;;;;;;;10.95;8.32;;;;;;;;;;4933663;29;20427;-78
2023/03/03 08:11:02;;;;;;;12.77;9.48;;;;;;;;;;4930529;29;20428;-78
2023/03/03 08:13:29;;;;;;;11.70;8.98;;;;;;;;;;4931807;29;20874;-77
2023/03/03 08:16:14;;;;;;;12.68;8.85;;;;;;;;;;4933644;29;20771;-80
2023/03/03 08:18:46;;;;;;;12.25;8.73;;;;;;;;;;4925475;29;20958;-81
2023/03/03 08:21:13;;;;;;;11.55;8.73;;;;;;;;;;4929134;29;20478;-81
2023/03/03 08:23:39;;;;;;;12.75;8.77;;;;;;;;;;4928475;29;20775;-80
2023/03/03 08:26:05;;;;;;;11.27;8.27;;;;;;;;;;4915493;29;20435;-80
2023/03/03 08:28:31;;;;;;;14.80;8.80;;;;;;;;;;4930393;29;20510;-80
2023/03/03 08:30:57;;;;;;;15.75;10.88;;;;;;;;;;4907493;29;20435;-79
2023/03/03 08:33:24;;;;;;;12.05;9.10;;;;;;;;;;4931017;29;20431;-80
2023/03/03 08:35:50;;;;;;;13.45;9.00;;;;;;;;;;4933076;29;20435;-79
2023/03/03 08:38:17;;;;;;;13.15;8.32;;;;;;;;;;4916970;29;20435;-79
2023/03/03 08:40:43;;;;;;;11.15;8.25;;;;;;;;;;4922917;29;20492;-79
2023/03/03 08:43:13;;;;;;;12.50;9.00;;;;;;;;;;4916038;29;20908;-79
2023/03/03 08:45:39;;;;;;;13.00;8.70;;;;;;;;;;4901507;29;20830;-79
2023/03/03 08:48:05;;;;;;;12.43;8.88;;;;;;;;;;4909670;29;20427;-79
2023/03/03 08:50:31;;;;;;;11.73;8.50;;;;;;;;;;4917965;29;20754;-79
2023/03/03 08:52:57;;;;;;;14.70;9.95;;;;;;;;;;4915053;29;20482;-79
2023/03/03 08:55:23;;;;;;;13.48;9.25;;;;;;;;;;4929267;29;20498;-79
2023/03/03 08:57:50;;;;;;;13.48;8.55;;;;;;;;;;4934220;29;20428;-80
2023/03/03 09:00:17;;;;;;;11.27;8.50;;;;;;;;;;4934375;29;20426;-80
2023/03/03 09:02:43;;;;;;;13.02;8.55;;;;;;;;;;4912297;29;20448;-79
2023/03/03 09:05:09;;;;;;;14.57;9.20;;;;;;;;;;4932572;29;20436;-79
2023/03/03 09:07:36;;;;;;;14.93;9.18;;;;;;;;;;4915138;29;20440;-79
2023/03/03 09:10:03;;;;;;;13.05;8.85;;;;;;;;;;4933950;29;20434;-80
2023/03/03 09:12:40;;;;;;;13.13;8.47;;;;;;;;;;4933125;29;20449;-80
2023/03/03 09:15:18;;;;;;;13.48;8.90;;;;;;;;;;4914819;29;20478;-82
2023/03/03 09:17:45;;;;;;;11.67;8.00;;;;;;;;;;4934919;29;20428;-81
2023/03/03 09:20:21;;;;;;;11.50;8.52;;;;;;;;;;4926609;29;20957;-82
2023/03/03 09:22:47;;;;;;;13.15;9.13;;;;;;;;;;4926980;29;20439;-82
2023/03/03 09:25:33;;;;;;;11.80;8.07;;;;;;;;;;4926798;29;20439;-81
2023/03/03 09:28:00;;;;;;;13.65;8.32;;;;;;;;;;4931582;29;20463;-82
2023/03/03 09:30:48;;;;;;;12.95;8.95;;;;;;;;;;4900935;29;20415;-80
2023/03/03 09:33:36;;;;;;;11.10;8.37;;;3.30;99.90;;;;;;4924001;29;20474;-80
2023/03/03 09:36:20;;;;;;;11.43;8.40;;;;;;;;;;4914559;29;20427;-79
2023/03/03 09:38:47;;;;;;;12.43;8.25;;;;;;;;;;4932810;29;20585;-81
2023/03/03 09:41:16;;;;;;;10.30;8.00;;;;;;;;;;4934830;29;20507;-82
2023/03/03 09:43:45;;;;;;;11.13;8.48;;;;;;;;;;4936047;29;20435;-79
2023/03/03 09:46:23;;;;;;;11.90;8.50;;;;;;;;;;4932337;29;20487;-79
2023/03/03 09:49:07;;;;;;;12.75;8.60;;;;;;;;;;4936060;29;20416;-79
2023/03/03 09:51:54;;;;;;;13.05;8.55;;;;;;;;;;4932717;29;20438;-79
2023/03/03 09:54:26;;;;;;;12.85;8.48;;;;;;;;;;4918775;29;20439;-79
2023/03/03 09:57:14;;;;;;;10.90;8.38;;;;;;;;;;4916530;29;20454;-78
2023/03/03 09:59:40;;;;;;;11.23;8.00;;;;;;;;;;4912629;29;20776;-79
2023/03/03 10:02:12;;;;;;;10.90;7.22;;;;;;;;;;4930405;29;20515;-78
2023/03/03 10:05:11;;;;;;;9.45;6.85;;;;;;;;;;4918166;29;20435;-79
2023/03/03 10:07:46;;;;;;;10.63;6.95;;;;;;;;;;4914086;29;20792;-79
2023/03/03 10:10:29;;;;;;;10.40;7.28;;;5.40;99.90;;;;;;4934720;29;20440;-79
2023/03/03 10:12:55;;;;;;;9.63;7.50;;;;;;;;;;4926748;29;20435;-78
2023/03/03 10:15:59;;;;;;;10.40;7.07;;;6.10;99.90;;;;;;4913324;29;20424;-79
2023/03/03 10:18:32;;;;;;;11.27;7.15;;;;;;;;;;4916160;29;20959;-80
2023/03/03 10:20:58;;;;;;;11.18;6.97;;;;;;;;;;4923512;29;20439;-79
2023/03/03 10:23:27;;;;;;;9.83;6.83;;;;;;;;;;4925015;29;20499;-79
2023/03/03 10:26:03;;;;;;;10.32;5.72;;;;;;;;;;4926271;29;20428;-79
2023/03/03 10:28:29;;;;;;;8.38;5.38;;;;;;;;;;4913449;29;20444;-79
2023/03/03 10:30:58;;;;;;;9.13;4.80;;;;;;;;;;4928696;29;20431;-79
2023/03/03 10:33:43;;;;;;;9.05;4.72;;;;;;;;;;4933199;29;20783;-78
2023/03/03 10:36:25;;;;;;;6.57;4.28;;;;;;;;;;4917199;29;20494;-79
2023/03/03 10:39:10;;;;;;;6.35;3.53;;;;;;;;;;4929783;29;20452;-78
2023/03/03 10:42:00;;;;;;;5.45;2.90;;;7.70;99.90;;;;;;4930239;29;20442;-78
2023/03/03 10:44:32;;;;;;;5.00;1.30;;;;;;;;;;4934273;29;20473;-79
2023/03/03 10:47:22;;;;;;;4.05;1.70;;;;;;;;;;4932664;29;20423;-79
2023/03/03 10:49:48;;;;;;;4.03;1.50;;;;;;;;;;4913310;29;20900;-81
2023/03/03 10:52:17;;;;;;;2.47;1.00;;;;;;;;;;4930278;29;20442;-80
2023/03/03 10:54:43;;;;;;;3.80;1.10;;;;;;;;;;4922022;29;20431;-80
2023/03/03 10:57:21;;;;;;;3.30;1.20;;;;;;;;;;4916783;29;20931;-79
2023/03/03 10:59:54;;;;;;;6.20;1.10;;;;;;;;;;4916569;29;20431;-80
2023/03/03 11:02:28;;;;;;;5.13;1.50;;;;;;;;;;4931175;29;20515;-79
2023/03/03 11:05:18;;;;;;;4.53;1.50;;;7.70;99.90;;;;;;4947183;29;20427;-79
2023/03/03 11:07:48;;;;;;;5.43;1.97;;;;;;;;;;4916460;29;20431;-82
2023/03/03 11:10:17;;;;;;;5.80;1.90;;;;;;;;;;4933342;29;20407;-81
2023/03/03 11:12:46;;;;;;;4.90;1.80;;;;;;;;;;4913335;29;20431;-81
2023/03/03 11:15:21;;;;;;;5.55;2.40;;;;;;;;;;4930979;29;20427;-80
2023/03/03 11:18:01;;;;;;;5.80;2.10;;;;;;;;;;4917200;29;20447;-80
2023/03/03 11:20:45;;;;;;;5.90;2.00;;;;;;;;;;4930713;29;20458;-79
2023/03/03 11:23:21;;;;;;;6.47;1.80;;;;;;;;;;4931257;29;20574;-79
2023/03/03 11:25:57;;;;;;;4.40;1.67;;;;;;;;;;4916301;29;20474;-80
2023/03/03 11:28:55;;;;;;;5.00;1.70;;;;;;;;;;4915031;29;20513;-80
2023/03/03 11:31:34;;;;;;;5.85;2.00;;;;;;;;;;4903834;29;20445;-80
2023/03/03 11:34:23;;;;;;;6.18;2.00;;;;;;;;;;4916952;29;20431;-80
2023/03/03 11:36:54;;;;;;;4.18;1.90;;;;;;;;;;4930725;29;20492;-80
2023/03/03 11:39:22;;;;;;;6.63;1.70;;;;;;;;;;4919343;29;20431;-79
2023/03/03 11:41:49;;;;;;;5.00;2.03;;;;;;;;;;4918220;29;20442;-79
2023/03/03 11:44:24;;;;;;;4.90;1.60;;;;;;;;;;4918669;29;20912;-80
2023/03/03 11:46:53;;;;;;;4.55;1.70;;;;;;;;;;4927853;29;20787;-79
2023/03/03 11:49:22;;;;;;;4.88;1.83;;;;;;;;;;4919691;29;20499;-83
2023/03/03 11:51:48;;;;;;;6.13;1.75;;;;;;;;;;4935844;29;20425;-82
2023/03/03 11:54:53;;;;;;;6.85;1.88;;;7.50;99.90;;;;;;4933994;29;20439;-80
2023/03/03 11:57:25;;;;;;;4.38;2.08;;;;;;;;;;4934233;29;20445;-80
2023/03/03 12:00:07;;;;;;;4.93;1.67;;;;;;;;;;4929374;29;20926;-79
2023/03/03 12:02:53;;;;;;;4.77;1.67;;;;;;;;;;4925213;29;20434;-79
2023/03/03 12:05:55;;;;;;;4.57;1.38;;;7.60;99.90;;;;;;4915758;29;20431;-79
2023/03/03 12:08:27;;;;;;;3.38;1.30;;;;;;;;;;4919812;29;20408;-79
2023/03/03 12:11:13;;;;;;;3.75;1.50;;;;;;;;;;4916357;29;21008;-79
2023/03/03 12:13:53;;;;;;;2.85;1.20;;;;;;;;;;4933472;29;20922;-81
2023/03/03 12:16:25;;;;;;;3.67;1.35;;;;;;;;;;4935850;29;20424;-78
2023/03/03 12:19:10;;;;;;;4.23;1.47;;;;;;;;;;4930885;29;20452;-79
2023/03/03 12:21:46;;;;;;;5.70;1.40;;;;;;;;;;4917345;29;20446;-80
2023/03/03 12:24:57;;;;;;;4.15;1.50;;;8.00;99.90;;;;;;4935518;29;20447;-80
2023/03/03 12:27:29;;;;;;;5.10;1.50;;;;;;;;;;4920654;29;20446;-79
2023/03/03 12:30:01;;;;;;;3.40;1.48;;;;;;;;;;4918157;29;20431;-81
2023/03/03 12:32:59;;;;;;;5.15;1.73;;;8.30;99.90;;;;;;4917305;29;20546;-79
2023/03/03 12:35:28;;;;;;;3.70;1.42;;;;;;;;;;4918249;29;20434;-80
2023/03/03 12:37:57;;;;;;;3.67;1.50;;;;;;;;;;4918930;29;20836;-80
2023/03/03 12:40:34;;;;;;;4.97;1.48;;;;;;;;;;4932556;29;20517;-80
2023/03/03 12:43:13;;;;;;;5.38;1.40;;;9.20;99.90;;;;;;4930475;29;20419;-80
2023/03/03 12:45:39;;;;;;;5.25;1.30;;;;;;;;;;4933032;29;20490;-80
2023/03/03 12:48:13;;;;;;;5.57;1.80;;;;;;;;;;4925859;29;20424;-79
2023/03/03 12:50:45;;;;;;;7.40;1.98;;;;;;;;;;4932477;29;20415;-80
2023/03/03 12:53:29;;;;;;;5.78;1.55;;;;;;;;;;4904099;29;20500;-80
2023/03/03 12:56:29;;;;;;;5.45;1.38;;;8.50;99.90;;;;;;4924395;29;20463;-80
2023/03/03 12:59:01;;;;;;;5.15;1.50;;;;;;;;;;4950621;29;20488;-80
2023/03/03 13:01:33;;;;;;;5.30;1.45;;;;;;;;;;4931450;29;20541;-81
2023/03/03 13:04:08;;;;;;;6.85;1.95;;;;;;;;;;4933238;29;20954;-80
2023/03/03 13:06:42;;;;;;;5.55;1.88;;;;;;;;;;4928243;29;20771;-80
2023/03/03 13:09:27;;;;;;;9.27;2.50;;;;;;;;;;4930900;29;20432;-80
2023/03/03 13:12:11;;;;;;;8.88;1.80;;;;;;;;;;4925870;29;20915;-80
2023/03/03 13:14:40;;;;;;;10.97;1.70;;;;;;;;;;4931895;29;20777;-79
2023/03/03 13:17:25;;;;;;;6.00;1.45;;;;;;;;;;4916589;29;20432;-79
2023/03/03 13:20:01;;;;;;;8.43;2.00;;;8.60;99.90;;;;;;4916848;29;20570;-79
2023/03/03 13:22:38;;;;;;;5.93;1.70;;;;;;;;;;4932561;29;20546;-80
2023/03/03 13:25:07;;;;;;;7.57;2.00;;;;;;;;;;4933325;29;20451;-79
2023/03/03 13:27:37;;;;;;;11.27;2.10;;;;;;;;;;4925624;29;20962;-80
2023/03/03 13:30:12;;;;;;;6.10;1.70;;;;;;;;;;4932749;29;20919;-79
2023/03/03 13:33:00;;;;;;;6.15;2.00;;;;;;;;;;4932413;29;20419;-78
2023/03/03 13:35:39;;;;;;;6.35;1.63;;;8.60;99.90;;;;;;4916590;29;20785;-78
2023/03/03 13:38:06;;;;;;;9.05;2.20;;;;;;;;;;4946339;29;20929;-80
2023/03/03 13:40:40;;;;;;;8.68;2.40;;;;;;;;;;4925712;29;20927;-80
2023/03/03 13:43:21;;;;;;;10.13;2.58;;;8.40;99.90;;;;;;4934141;29;20431;-80
2023/03/03 13:45:47;;;;;;;10.85;2.50;;;;;;;;;;4932102;29;20481;-80
2023/03/03 13:48:19;;;;;;;11.25;2.83;;;;;;;;;;4933960;29;20494;-79
2023/03/03 13:50:48;;;;;;;9.43;2.40;;;;;;;;;;4933073;29;20419;-79
2023/03/03 13:54:12;;;;;;;10.23;2.78;;;7.90;99.90;;;;;;4908552;29;20431;-79
2023/03/03 13:56:50;;;;;;;12.27;2.43;;;;;;;;;;4874809;29;20745;-80
2023/03/03 13:59:39;;;;;;;10.63;2.50;;;;;;;;;;4865082;29;20420;-79
2023/03/03 14:02:24;;;;;;;15.03;3.40;;;;;;;;;;4932318;28;20431;-79
2023/03/03 14:04:57;;;;;;;14.00;3.40;;;;;;;;;;4922479;29;20500;-80
2023/03/03 14:07:43;;;;;;;12.20;2.90;;;;;;;;;;4923434;29;20493;-80
2023/03/03 14:10:09;;;;;;;13.10;3.88;;;;;;;;;;4911161;29;20437;-80
2023/03/03 14:12:35;;;;;;;15.45;4.65;;;;;;;;;;4913829;29;20425;-79
2023/03/03 14:15:03;;;;;;;12.88;3.55;;;;;;;;;;4915521;29;20409;-79
2023/03/03 14:17:33;;;;;;;8.97;2.60;;;;;;;;;;4900021;29;20417;-79
2023/03/03 14:20:26;;;;;;;10.18;2.78;;;8.50;99.90;;;;;;4898886;29;20417;-80
2023/03/03 14:22:52;;;;;;;14.95;3.90;;;;;;;;;;4914579;29;20436;-79
2023/03/03 14:25:18;;;;;;;15.75;4.13;;;;;;;;;;4914934;29;20421;-79
2023/03/03 14:27:44;;;;;;;16.50;4.00;;;;;;;;;;4914982;29;20409;-79
2023/03/03 14:30:40;;;;;;;15.73;4.32;;;;;;;;;;4915297;29;20405;-79
2023/03/03 14:33:09;;;;;;;18.88;4.55;;;;;;;;;;4911308;29;20460;-79
2023/03/03 14:35:56;;;;;;;21.38;4.40;;;8.10;99.90;;;;;;4915927;29;20906;-79
2023/03/03 14:38:31;;;;;;;14.20;3.45;;;;;;;;;;4901014;29;20477;-79
2023/03/03 14:41:16;;;;;;;17.33;3.83;;;;;;;;;;4918801;29;20445;-79
2023/03/03 14:43:45;;;;;;;14.38;3.25;;;;;;;;;;4904550;29;20415;-80